Startpagina
METAR-TAF:

METAR-TAF

Vliegvelden :

Nenana, Alaska, Verenigde Staten

breedte: 64-33N, lengte: 149-05W, hoogte: 110 m

Actueel weer

Dit bericht is 33 minuten geleden gemaakt, om 15:53 UTC
Wind 5 kt uit het westen
Temperatuur -4°C
Vochtigheid 74%
Druk 998 hPa
Zicht: 16.1 km
Gebroken wolken op 2200 ft
Geheel bewolkt op 3100 ft

METAR: PANN 181553Z AUTO 27005KT 10SM BKN022 OVC031 M04/M08 A2947 RMK AO2 SLP989 T10391078 TSNO

Tijdstip: 08:26 (16:26 UTC)


TAF: ontbreekt

Waarnemingen en weersverwachtingen van meer dan 4000 vliegvelden (METAR en TAF).

De beschikbare stations zijn de gele en rode punten op de kaart.

Ga met uw muis naar het station om de naam te zien.

Klik dan om waarnemingen en weersverwachtingen te zien.

kaart wijzigen: klik op de groene knoppen met een zwart kruis om in te zoomen, op de groene knop met een streepje om uit te zoomen of op de groene pijlen voor aangrenzende kaarten.


METAR-TAF: